Time;durP1;ratioP1;P1;durP2;ratioP2;P2;SDS_P1;SDS_P2;PMS_P1;PMS_P2;Temp;Humidity;BMP_temperature;BMP_pressure;BME280_temperature;BME280_humidity;BME280_pressure;Samples;Min_cycle;Max_cycle;Signal;HPM_P1;HPM_P2
2022/07/26 00:00:18;;;;;;;9.40;1.77;;;;;;;18.32;100.00;100991.41;5057731;28;20032;-80
2022/07/26 00:02:45;;;;;;;7.40;1.45;;;;;;;18.32;100.00;100988.66;5073380;28;20021;-80
2022/07/26 00:05:10;;;;;;;6.00;1.40;;;;;;;18.19;100.00;100978.91;5039582;28;20404;-80
2022/07/26 00:07:37;;;;;;;7.95;1.30;;;;;;;18.15;100.00;100993.25;5071258;28;20024;-79
2022/07/26 00:10:04;;;;;;;10.25;1.45;;;;;;;18.26;100.00;100997.63;5066965;28;20082;-80
2022/07/26 00:12:30;;;;;;;6.80;1.30;;;;;;;18.14;100.00;100991.53;5055557;28;20476;-80
2022/07/26 00:14:55;;;;;;;4.93;1.42;;;;;;;18.11;100.00;101000.19;5072948;28;20098;-80
2022/07/26 00:17:21;;;;;;;6.25;0.90;;;;;;;18.23;100.00;100998.81;5057305;28;20044;-80
2022/07/26 00:19:46;;;;;;;5.05;1.33;;;;;;;18.21;100.00;100995.34;5039869;28;20036;-80
2022/07/26 00:24:56;;;;;;;7.20;1.38;;;;;;;18.21;100.00;100991.72;5087040;28;20033;-80
2022/07/26 00:27:22;;;;;;;5.72;1.05;;;;;;;18.12;100.00;100993.63;5057379;28;20097;-81
2022/07/26 00:29:47;;;;;;;4.78;1.10;;;;;;;18.15;100.00;100994.13;5072113;28;20044;-80
2022/07/26 00:32:13;;;;;;;4.65;1.33;;;;;;;18.23;100.00;101007.13;5053726;28;20034;-81
2022/07/26 00:34:38;;;;;;;9.75;1.40;;;;;;;18.08;100.00;101006.91;5043255;28;20037;-83
2022/07/26 00:37:04;;;;;;;5.95;1.30;;;;;;;17.98;100.00;101003.41;5043395;28;20031;-80
2022/07/26 00:39:29;;;;;;;7.82;1.92;;;;;;;17.99;100.00;101000.47;5062146;28;20043;-82
2022/07/26 00:41:55;;;;;;;10.75;1.23;;;;;;;18.06;100.00;101002.59;5077939;28;20048;-80
2022/07/26 00:44:20;;;;;;;8.68;1.42;;;;;;;17.98;100.00;100993.19;5028243;28;20036;-80
2022/07/26 00:46:46;;;;;;;10.05;1.65;;;;;;;18.06;100.00;101000.66;5039760;28;20036;-80
2022/07/26 00:49:11;;;;;;;12.35;1.33;;;;;;;18.17;100.00;100992.06;5073871;28;20043;-81
2022/07/26 00:51:37;;;;;;;9.90;1.33;;;;;;;18.19;100.00;100994.66;5059690;28;20037;-81
2022/07/26 00:54:04;;;;;;;6.85;1.13;;;;;;;17.95;100.00;100996.28;5061695;28;20032;-80
2022/07/26 00:56:32;;;;;;;3.33;1.00;;;;;;;18.00;100.00;101001.34;5076350;28;20391;-80
2022/07/26 00:58:57;;;;;;;12.55;1.80;;;;;;;17.99;100.00;101005.16;5057674;28;20108;-80
2022/07/26 01:01:23;;;;;;;5.00;1.38;;;;;;;17.88;100.00;101003.53;5058497;28;20077;-80
2022/07/26 01:03:52;;;;;;;6.97;1.50;;;;;;;18.01;100.00;101008.63;5078167;28;20032;-80
2022/07/26 01:06:19;;;;;;;6.88;1.30;;;;;;;18.03;100.00;101012.09;5076172;28;20523;-79
2022/07/26 01:08:45;;;;;;;5.93;1.83;;;;;;;18.00;100.00;101004.09;5072982;28;20107;-80
2022/07/26 01:11:11;;;;;;;6.38;1.40;;;;;;;17.95;100.00;100998.19;5079036;28;20459;-80
2022/07/26 01:13:36;;;;;;;9.43;1.38;;;;;;;17.91;100.00;100999.59;5060505;28;20668;-79
2022/07/26 01:16:02;;;;;;;6.82;1.38;;;;;;;17.93;100.00;100997.50;5077296;28;20118;-80
2022/07/26 01:18:28;;;;;;;8.07;1.50;;;;;;;18.12;100.00;101000.00;5072839;28;20485;-81
2022/07/26 01:20:56;;;;;;;14.95;2.00;;;;;;;17.94;100.00;100994.56;5077190;28;20032;-80
2022/07/26 01:23:22;;;;;;;6.32;1.38;;;;;;;17.74;100.00;100965.34;5077031;28;21877;-80
2022/07/26 01:25:48;;;;;;;9.40;1.98;;;;;;;18.07;100.00;100991.34;5060815;28;20036;-80
2022/07/26 01:28:13;;;;;;;6.38;1.58;;;;;;;17.92;100.00;100982.78;5054336;28;20127;-80
2022/07/26 01:30:39;;;;;;;6.90;1.88;;;;;;;18.06;100.00;100981.28;5079477;28;20039;-78
2022/07/26 01:33:04;;;;;;;8.15;1.73;;;;;;;17.99;100.00;100985.75;5064430;28;20036;-78
2022/07/26 01:35:30;;;;;;;9.50;2.05;;;;;;;17.91;100.00;100982.97;5046856;28;20151;-79
2022/07/26 01:37:55;;;;;;;9.15;1.70;;;;;;;18.10;100.00;100977.16;5062266;28;20043;-79
2022/07/26 01:40:21;;;;;;;6.90;1.55;;;;;;;18.01;100.00;100980.91;5081159;28;20425;-79
2022/07/26 01:42:47;;;;;;;11.65;2.05;;;;;;;17.96;100.00;100984.19;5063112;28;20024;-78
2022/07/26 01:45:12;;;;;;;17.60;1.95;;;;;;;17.80;100.00;100973.84;5080819;28;20055;-79
2022/07/26 01:47:39;;;;;;;9.98;1.60;;;;;;;17.92;100.00;100979.13;5063278;28;20066;-79
2022/07/26 01:50:06;;;;;;;8.20;1.88;;;;;;;17.77;100.00;100979.75;5045840;28;20115;-80
2022/07/26 01:52:34;;;;;;;12.52;2.38;;;;;;;18.00;100.00;100979.16;5079419;28;20040;-80
2022/07/26 01:55:00;;;;;;;5.82;1.60;;;;;;;18.00;100.00;100991.13;5062563;28;20116;-80
2022/07/26 01:57:25;;;;;;;13.23;2.10;;;;;;;17.89;100.00;100977.59;5042570;28;20040;-80
2022/07/26 01:59:51;;;;;;;10.48;1.85;;;;;;;17.98;100.00;100986.78;5079924;28;20032;-79
2022/07/26 02:02:16;;;;;;;9.63;1.65;;;;;;;18.08;100.00;100993.06;5078705;28;20039;-79
2022/07/26 02:04:57;;;;;;;8.85;1.98;;;;;;;17.86;100.00;101000.03;5063078;28;20035;-80
2022/07/26 02:07:37;;;;;;;9.20;1.92;;;;;;;18.01;100.00;100997.53;5063903;28;20036;-79
2022/07/26 02:10:03;;;;;;;10.50;1.70;;;;;;;18.09;100.00;100993.94;5057647;28;20043;-79
2022/07/26 02:12:29;;;;;;;14.68;1.77;;;;;;;18.03;100.00;101011.22;5028472;28;20064;-79
2022/07/26 02:14:54;;;;;;;7.35;2.00;;;;;;;18.11;100.00;101002.94;5045914;28;20040;-79
2022/07/26 02:17:20;;;;;;;14.85;2.35;;;;;;;18.03;100.00;101014.00;5056400;28;20488;-79
2022/07/26 02:19:46;;;;;;;13.82;2.53;;;;;;;18.04;100.00;101008.28;5076714;28;20462;-81
2022/07/26 02:22:12;;;;;;;8.75;2.17;;;;;;;18.07;100.00;101005.19;5076356;28;20032;-81
2022/07/26 02:24:37;;;;;;;13.05;2.10;;;;;;;17.94;100.00;101011.19;5098548;28;20038;-81
2022/07/26 02:27:03;;;;;;;10.23;1.92;;;;;;;17.99;100.00;101007.94;5042039;28;20395;-81
2022/07/26 02:29:29;;;;;;;9.75;2.03;;;;;;;18.03;100.00;101009.31;5053437;28;20039;-81
2022/07/26 02:31:56;;;;;;;9.40;2.10;;;;;;;17.84;100.00;101007.66;5046243;28;20048;-81
2022/07/26 02:34:22;;;;;;;8.65;1.92;;;;;;;17.87;100.00;101006.44;5077966;28;20036;-80
2022/07/26 02:36:49;;;;;;;10.90;2.45;;;;;;;17.87;100.00;101009.22;5056218;28;20066;-81
2022/07/26 02:39:15;;;;;;;19.20;2.70;;;;;;;17.87;100.00;101020.28;5073253;28;20028;-81
2022/07/26 02:41:40;;;;;;;11.80;1.92;;;;;;;17.84;100.00;101013.19;5095432;28;20471;-82
2022/07/26 02:44:07;;;;;;;13.38;1.98;;;;;;;17.77;100.00;101004.69;5078779;28;20039;-80
2022/07/26 02:46:33;;;;;;;16.70;2.40;;;;;;;17.76;100.00;101011.25;5077070;28;21680;-81
2022/07/26 02:48:59;;;;;;;22.95;3.17;;;;;;;17.92;100.00;101018.81;5060735;28;20043;-82
2022/07/26 02:51:25;;;;;;;10.25;2.22;;;;;;;17.98;100.00;101020.91;5043762;28;20044;-82
2022/07/26 02:53:50;;;;;;;8.90;2.20;;;;;;;17.76;100.00;101016.78;5097457;28;20031;-81
2022/07/26 02:56:16;;;;;;;12.25;2.13;;;;;;;17.83;100.00;101017.84;5041601;28;20028;-81
2022/07/26 02:58:42;;;;;;;12.68;2.67;;;;;;;17.80;100.00;101025.63;5095701;28;20051;-80
2022/07/26 03:01:07;;;;;;;18.30;2.28;;;;;;;17.73;100.00;101019.88;5043516;28;20060;-81
2022/07/26 03:03:32;;;;;;;15.15;2.63;;;;;;;17.86;100.00;101018.56;5061376;28;20038;-81
2022/07/26 03:05:58;;;;;;;14.60;2.65;;;;;;;17.96;100.00;101022.09;5049445;28;20559;-80
2022/07/26 03:08:23;;;;;;;12.68;2.30;;;;;;;17.76;100.00;101016.78;5061124;28;20040;-82
2022/07/26 03:10:49;;;;;;;15.65;3.28;;;;;;;17.81;100.00;101014.38;5042814;28;20036;-81
2022/07/26 03:13:14;;;;;;;14.65;2.33;;;;;;;17.93;100.00;101027.97;5065470;28;20052;-80
2022/07/26 03:15:40;;;;;;;14.80;2.42;;;;;;;17.97;100.00;101024.72;5057149;28;20036;-81
2022/07/26 03:18:06;;;;;;;17.35;2.55;;;;;;;17.78;100.00;101019.38;5064750;28;20036;-81
2022/07/26 03:20:31;;;;;;;16.95;2.58;;;;;;;17.86;100.00;101027.75;5058110;28;20036;-81
2022/07/26 03:22:57;;;;;;;14.05;2.40;;;;;;;17.83;100.00;101033.59;5077513;28;20399;-81
2022/07/26 03:25:22;;;;;;;11.52;2.10;;;;;;;17.78;100.00;101041.53;5076717;28;20036;-80
2022/07/26 03:27:48;;;;;;;13.38;2.83;;;;;;;17.86;100.00;101038.81;5059242;28;20028;-81
2022/07/26 03:30:13;;;;;;;18.00;2.65;;;;;;;17.79;100.00;101044.16;5055960;28;20032;-81
2022/07/26 03:32:39;;;;;;;15.20;2.50;;;;;;;17.86;100.00;101047.13;5056533;28;20040;-80
2022/07/26 03:35:06;;;;;;;12.65;2.60;;;;;;;17.88;100.00;101045.09;5075109;28;20127;-80
2022/07/26 03:37:32;;;;;;;17.50;2.45;;;;;;;17.73;100.00;101046.72;5060346;28;20084;-80
2022/07/26 03:39:57;;;;;;;11.52;2.08;;;;;;;17.95;100.00;101048.94;5044312;28;20036;-80
2022/07/26 03:42:22;;;;;;;16.83;3.20;;;;;;;18.08;100.00;101062.31;5049875;28;20592;-80
2022/07/26 03:44:48;;;;;;;17.10;2.70;;;;;;;17.88;100.00;101053.41;5035196;28;20493;-79
2022/07/26 03:47:13;;;;;;;11.63;2.80;;;;;;;17.81;100.00;101060.63;5056258;28;20107;-80
2022/07/26 03:49:39;;;;;;;13.73;2.72;;;;;;;17.80;100.00;101056.94;5076635;28;20028;-81
2022/07/26 03:52:05;;;;;;;14.38;2.83;;;;;;;17.71;100.00;101068.13;5094047;28;20024;-80
2022/07/26 03:54:30;;;;;;;13.38;2.63;;;;;;;17.68;100.00;101061.03;5058100;28;20036;-81
2022/07/26 03:56:56;;;;;;;12.13;3.03;;;;;;;17.82;100.00;101063.22;5042323;28;20039;-81
2022/07/26 03:59:23;;;;;;;12.73;2.50;;;;;;;17.89;100.00;101066.22;5078005;28;20062;-80
2022/07/26 04:01:48;;;;;;;15.23;2.70;;;;;;;17.74;100.00;101076.13;5051305;28;20100;-80
2022/07/26 04:04:18;;;;;;;18.25;3.20;;;;;;;17.74;100.00;101073.34;5075718;28;20083;-80
2022/07/26 04:06:45;;;;;;;10.70;2.53;;;;;;;17.72;100.00;101072.66;5058895;28;20040;-81
2022/07/26 04:09:12;;;;;;;15.50;3.42;;;;;;;17.76;100.00;101077.72;5077179;28;20044;-83
2022/07/26 04:11:38;;;;;;;16.92;3.00;;;;;;;17.90;100.00;101078.16;5074277;28;20028;-80
2022/07/26 04:14:05;;;;;;;19.00;3.05;;;;;;;17.95;100.00;101071.09;5037927;28;20032;-82
2022/07/26 04:16:31;;;;;;;16.67;2.90;;;;;;;17.78;100.00;101081.19;5081690;28;20028;-81
2022/07/26 04:18:57;;;;;;;15.80;2.83;;;;;;;17.77;100.00;101073.03;5065348;28;20128;-81
2022/07/26 04:21:23;;;;;;;19.90;2.95;;;;;;;17.87;100.00;101084.00;5080956;28;20071;-79
2022/07/26 04:23:49;;;;;;;12.40;3.10;;;;;;;17.92;100.00;101085.31;5076646;28;20455;-79
2022/07/26 04:26:15;;;;;;;17.83;3.22;;;;;;;18.07;100.00;101081.88;5074797;28;20036;-79
2022/07/26 04:28:42;;;;;;;14.75;2.83;;;;;;;18.09;100.00;101075.16;5079315;28;20032;-78
2022/07/26 04:31:08;;;;;;;13.93;2.92;;;;;;;18.00;100.00;101081.69;5080764;28;20448;-79
2022/07/26 04:33:34;;;;;;;18.38;2.95;;;;;;;17.98;100.00;101090.16;5096117;28;20024;-78
2022/07/26 04:36:00;;;;;;;20.02;3.50;;;;;;;18.18;100.00;101081.59;5095244;28;20396;-78
2022/07/26 04:38:25;;;;;;;18.52;2.70;;;;;;;18.04;100.00;101074.78;5060167;28;20098;-78
2022/07/26 04:40:51;;;;;;;19.70;3.15;;;;;;;18.16;100.00;101090.09;5082294;28;20032;-79
2022/07/26 04:43:18;;;;;;;12.63;4.28;;;;;;;18.15;100.00;101081.94;5081397;28;20371;-79
2022/07/26 04:45:47;;;;;;;18.27;3.30;;;;;;;18.11;100.00;101083.31;5097751;28;20024;-79
2022/07/26 04:48:13;;;;;;;20.90;3.10;;;;;;;18.02;100.00;101093.50;5101467;28;20059;-78
2022/07/26 04:50:38;;;;;;;14.52;3.05;;;;;;;18.16;100.00;101090.09;5100446;28;20423;-78
2022/07/26 04:53:04;;;;;;;17.95;3.35;;;;;;;18.06;100.00;101089.34;5050584;28;20040;-79
2022/07/26 04:55:30;;;;;;;21.55;3.90;;;;;;;18.33;100.00;101087.38;5060983;28;20036;-80
2022/07/26 04:57:55;;;;;;;21.95;3.63;;;;;;;18.26;100.00;101087.19;5098228;28;20064;-79
2022/07/26 05:00:23;;;;;;;21.73;2.92;;;;;;;18.25;100.00;101090.13;5076943;28;20039;-81
2022/07/26 05:02:54;;;;;;;19.17;3.38;;;;;;;17.96;100.00;101094.16;5082252;28;20036;-81
2022/07/26 05:05:21;;;;;;;21.90;4.07;;;;;;;18.02;100.00;101093.50;5099292;28;20043;-79
2022/07/26 05:07:50;;;;;;;21.52;3.72;;;;;;;18.07;100.00;101099.41;5060952;28;20040;-80
2022/07/26 05:10:17;;;;;;;13.43;3.60;;;;;;;17.90;100.00;101100.34;5062947;28;20032;-81
2022/07/26 05:12:45;;;;;;;18.40;3.88;;;;;;;18.09;100.00;101105.66;5029994;28;20123;-80
2022/07/26 05:15:11;;;;;;;22.33;3.90;;;;;;;18.07;100.00;101098.53;5064141;28;20025;-81
2022/07/26 05:17:38;;;;;;;17.52;3.83;;;;;;;17.92;100.00;101106.56;5091979;28;20111;-81
2022/07/26 05:20:08;;;;;;;22.85;3.72;;;;;;;18.09;100.00;101105.66;5065174;28;20032;-80
2022/07/26 05:22:35;;;;;;;17.27;3.35;;;;;;;18.28;100.00;101115.63;5081723;28;20107;-81
2022/07/26 05:25:00;;;;;;;13.30;2.88;;;;;;;18.51;100.00;101120.56;5101106;28;20467;-81
2022/07/26 05:27:26;;;;;;;19.80;3.75;;;;;;;18.43;100.00;101113.09;5100258;28;20055;-81
2022/07/26 05:29:53;;;;;;;22.20;4.07;;;;;;;18.52;100.00;101120.41;5082728;28;20483;-81
2022/07/26 05:32:19;;;;;;;19.83;4.22;;;;;;;18.63;100.00;101116.47;5065157;28;20101;-80
2022/07/26 05:34:44;;;;;;;19.20;4.47;;;;;;;18.52;100.00;101122.31;5064555;28;20032;-81
2022/07/26 05:37:10;;;;;;;23.90;3.67;;;;;;;18.27;100.00;101113.03;5058818;28;20036;-80
2022/07/26 05:39:36;;;;;;;19.02;3.70;;;;;;;18.55;100.00;101116.44;5029890;28;20032;-80
2022/07/26 05:42:01;;;;;;;17.38;3.88;;;;;;;18.32;100.00;101119.78;5062635;28;20043;-80
2022/07/26 05:44:27;;;;;;;18.10;4.00;;;;;;;18.63;100.00;101113.69;5098088;28;20039;-80
2022/07/26 05:46:52;;;;;;;32.13;4.80;;;;;;;18.62;100.00;101120.25;5066249;28;20076;-80
2022/07/26 05:49:18;;;;;;;16.27;3.50;;;;;;;19.11;100.00;101127.88;5083800;28;20036;-80
2022/07/26 05:51:43;;;;;;;22.77;3.78;;;;;;;19.18;100.00;101131.69;5066800;28;20028;-80
2022/07/26 05:54:08;;;;;;;19.55;4.03;;;;;;;19.28;100.00;101137.09;5063724;28;20047;-80
2022/07/26 05:56:34;;;;;;;23.23;4.35;;;;;;;19.60;100.00;101127.91;5041992;28;20038;-80
2022/07/26 05:59:00;;;;;;;20.95;4.05;;;;;;;19.75;100.00;101132.78;5069175;28;20055;-80
2022/07/26 06:01:28;;;;;;;20.25;3.83;;;;;;;19.61;100.00;101132.44;5067043;28;20039;-80
2022/07/26 06:03:53;;;;;;;14.55;3.25;;;;;;;19.85;100.00;101141.81;5102139;28;20046;-80
2022/07/26 06:06:19;;;;;;;12.00;3.50;;;;;;;20.22;100.00;101129.25;5069084;28;20032;-80
2022/07/26 06:08:44;;;;;;;17.60;4.18;;;;;;;19.84;100.00;101140.09;5043242;28;20024;-80
2022/07/26 06:11:10;;;;;;;16.60;4.00;;;;;;;19.92;100.00;101125.31;5066515;28;20032;-78
2022/07/26 06:13:36;;;;;;;15.20;3.13;;;;;;;20.43;100.00;101141.69;5069391;28;20028;-81
2022/07/26 06:16:01;;;;;;;19.08;3.78;;;;;;;20.68;100.00;101137.78;5067394;28;20036;-77
2022/07/26 06:18:27;;;;;;;21.20;4.45;;;;;;;20.48;100.00;101144.78;5065234;28;20039;-79
2022/07/26 06:20:52;;;;;;;23.27;3.70;;;;;;;20.42;100.00;101151.09;5034577;28;20401;-79
2022/07/26 06:23:18;;;;;;;15.70;3.55;;;;;;;20.30;100.00;101150.59;5049458;28;20067;-79
2022/07/26 06:25:43;;;;;;;18.90;4.45;;;;;;;20.22;100.00;101153.38;5061921;28;20037;-78
2022/07/26 06:28:10;;;;;;;22.60;4.75;;;;;;;20.30;100.00;101158.94;5077496;28;20035;-77
2022/07/26 06:30:37;;;;;;;19.20;3.78;;;;;;;20.36;100.00;101152.66;5094280;28;20124;-77
2022/07/26 06:33:03;;;;;;;15.75;3.72;;;;;;;20.43;100.00;101163.94;5070756;28;20044;-77
2022/07/26 06:35:29;;;;;;;18.15;3.60;;;;;;;20.37;100.00;101158.03;5075177;28;20036;-77
2022/07/26 06:37:56;;;;;;;16.80;4.03;;;;;;;20.84;100.00;101161.91;5070715;28;20123;-77
2022/07/26 06:40:22;;;;;;;13.63;3.45;;;;;;;21.43;100.00;101152.13;5077417;28;20057;-78
2022/07/26 06:42:48;;;;;;;18.27;3.28;;;;;;;21.69;100.00;101162.91;5076257;28;20028;-76
2022/07/26 06:45:13;;;;;;;18.27;3.88;;;;;;;21.99;100.00;101163.88;5076368;28;20475;-76
2022/07/26 06:47:39;;;;;;;12.52;3.17;;;;;;;21.88;100.00;101161.53;5073246;28;20043;-76
2022/07/26 06:50:05;;;;;;;16.90;3.40;;;;;;;21.76;100.00;101169.50;5074717;28;20475;-76
2022/07/26 06:52:31;;;;;;;14.98;3.55;;;;;;;22.11;100.00;101172.63;5024183;28;20044;-75
2022/07/26 06:54:58;;;;;;;22.20;3.15;;;;;;;22.47;100.00;101171.06;5056120;28;20119;-76
2022/07/26 06:57:24;;;;;;;13.57;3.35;;;;;;;22.77;100.00;101177.50;5086707;28;20032;-75
2022/07/26 06:59:50;;;;;;;21.23;2.97;;;;;;;21.58;100.00;101168.91;5093792;28;20537;-76
2022/07/26 07:02:16;;;;;;;8.95;2.20;;;;;;;21.62;100.00;101167.50;5075701;28;20028;-75
2022/07/26 07:04:41;;;;;;;13.40;2.60;;;;;;;22.53;100.00;101173.97;5075899;28;20040;-76
2022/07/26 07:07:07;;;;;;;10.60;2.70;;;;;;;23.06;100.00;101168.19;5091502;28;20108;-76
2022/07/26 07:09:34;;;;;;;10.95;1.75;;;;;;;23.08;100.00;101177.28;5093416;28;20111;-75
2022/07/26 07:12:01;;;;;;;9.63;1.75;;;;;;;22.14;100.00;101179.75;5092902;28;20115;-77
2022/07/26 07:14:27;;;;;;;6.93;1.40;;;;;;;23.08;100.00;101184.78;5093478;28;20101;-78
2022/07/26 07:16:53;;;;;;;10.00;1.88;;;;;;;22.32;100.00;101176.66;5095302;28;20036;-78
2022/07/26 07:19:18;;;;;;;7.35;1.63;;;;;;;22.11;100.00;101194.09;5083323;28;20040;-77
2022/07/26 07:21:44;;;;;;;11.57;2.00;;;;;;;23.15;100.00;101182.09;5056097;28;20032;-77
2022/07/26 07:24:09;;;;;;;12.55;1.88;;;;;;;23.38;100.00;101185.59;5048083;28;20039;-77
2022/07/26 07:26:35;;;;;;;7.82;1.60;;;;;;;23.67;97.44;101184.56;5049703;28;20040;-77
2022/07/26 07:29:00;;;;;;;7.47;1.60;;;;;;;23.08;95.83;101188.44;5074181;28;20043;-77
2022/07/26 07:31:26;;;;;;;7.20;1.40;;;;;;;23.43;94.25;101196.16;5041549;28;20081;-77
2022/07/26 07:33:51;;;;;;;7.38;1.30;;;;;;;24.43;88.54;101194.28;5070872;28;20123;-77
2022/07/26 07:36:18;;;;;;;5.80;1.40;;;;;;;24.14;91.65;101195.38;5075990;28;20043;-78
2022/07/26 07:38:44;;;;;;;5.10;1.27;;;;;;;23.55;92.92;101194.56;5074722;28;20043;-80
2022/07/26 07:41:09;;;;;;;7.00;1.23;;;;;;;23.76;90.55;101198.44;5062435;28;20035;-80
2022/07/26 07:43:35;;;;;;;8.15;1.40;;;;;;;23.37;93.76;101194.19;5060374;28;20093;-80
2022/07/26 07:46:01;;;;;;;6.38;1.27;;;;;;;23.02;93.84;101192.00;5078992;28;20054;-80
2022/07/26 07:48:26;;;;;;;10.40;1.42;;;;;;;22.54;96.46;101194.34;5045318;28;20042;-80
2022/07/26 07:50:52;;;;;;;14.77;1.92;;;;;;;22.54;96.54;101194.34;5077878;28;20032;-81
2022/07/26 07:53:17;;;;;;;4.32;1.40;;;;;;;22.25;99.59;101196.03;5063306;28;20135;-81
2022/07/26 07:55:43;;;;;;;7.03;1.45;;;;;;;22.63;94.25;101200.69;5073464;28;20039;-81
2022/07/26 07:58:08;;;;;;;7.60;1.40;;;;;;;22.68;94.43;101195.44;5078677;28;20043;-82
2022/07/26 08:00:33;;;;;;;4.38;1.20;;;;;;;23.57;89.26;101199.97;5061901;28;20044;-81
2022/07/26 08:03:03;;;;;;;9.43;1.48;;;;;;;24.41;85.27;101196.41;5064020;28;20028;-82
2022/07/26 08:05:28;;;;;;;5.60;1.35;;;;;;;23.48;89.66;101202.91;5095702;28;20040;-82
2022/07/26 08:07:54;;;;;;;12.05;1.40;;;;;;;23.29;90.85;101197.94;5046302;28;20034;-82
2022/07/26 08:10:20;;;;;;;5.85;1.17;;;;;;;22.61;95.45;101206.47;5064512;28;20036;-82
2022/07/26 08:12:46;;;;;;;7.85;1.40;;;;;;;23.85;89.00;101192.53;5079750;28;20039;-82
2022/07/26 08:15:12;;;;;;;5.85;1.38;;;;;;;24.08;85.68;101202.63;5078980;28;20044;-82
2022/07/26 08:17:37;;;;;;;6.35;1.20;;;;;;;24.32;84.21;101204.13;5065093;28;20036;-83
2022/07/26 08:20:03;;;;;;;4.43;1.00;;;;;;;23.81;85.65;101207.09;5059359;28;20492;-82
2022/07/26 08:22:29;;;;;;;5.63;1.00;;;;;;;25.27;78.54;101209.22;5059388;28;20050;-82
2022/07/26 08:24:55;;;;;;;7.00;1.13;;;;;;;24.48;80.43;101204.84;5059001;28;20024;-82
2022/07/26 08:27:20;;;;;;;4.88;1.05;;;;;;;23.68;85.87;101205.91;5057735;28;20043;-83
2022/07/26 08:29:46;;;;;;;8.45;1.25;;;;;;;23.28;87.72;101215.75;5047860;28;20096;-82
2022/07/26 08:32:11;;;;;;;6.68;1.10;;;;;;;21.95;94.56;101207.13;5078281;28;20047;-82
2022/07/26 08:34:37;;;;;;;9.70;1.42;;;;;;;23.62;89.20;101208.63;5073223;28;20039;-81
2022/07/26 08:37:02;;;;;;;7.07;1.40;;;;;;;23.46;89.28;101215.31;5095669;28;20052;-81
2022/07/26 08:39:28;;;;;;;6.10;1.30;;;;;;;23.80;88.94;101210.97;5098777;28;20023;-83
2022/07/26 08:41:53;;;;;;;3.63;1.20;;;;;;;24.31;85.71;101207.13;5098868;28;20048;-81
2022/07/26 08:44:19;;;;;;;8.82;1.30;;;;;;;23.81;88.22;101195.91;5114253;28;20043;-82
2022/07/26 08:46:44;;;;;;;10.65;1.58;;;;;;;25.41;79.24;101212.91;5083873;28;20055;-82
2022/07/26 08:49:11;;;;;;;7.47;1.20;;;;;;;25.23;79.82;101208.72;5081137;28;20040;-82
2022/07/26 08:51:39;;;;;;;5.15;1.50;;;;;;;25.05;80.72;101240.13;5084082;28;20040;-82
2022/07/26 08:54:05;;;;;;;4.50;0.90;;;;;;;23.16;94.11;101246.16;5085512;28;20061;-82
2022/07/26 08:56:35;;;;;;;2.50;0.60;;;;;;;22.25;100.00;101239.78;5101217;28;20032;-81
2022/07/26 08:59:11;;;;;;;1.17;0.40;;;;;;;21.36;100.00;101237.50;5073956;28;20025;-82
2022/07/26 09:01:51;;;;;;;1.65;0.52;;;;;;;21.29;100.00;101237.34;5068056;28;20064;-81
2022/07/26 09:04:19;;;;;;;3.85;0.60;;;;;;;20.93;100.00;101254.59;5068109;28;20028;-84
2022/07/26 09:07:27;;;;;;;3.08;0.50;;;;;;;21.26;100.00;101254.44;5050276;28;20028;-81
2022/07/26 09:10:01;;;;;;;5.38;0.50;;;;;;;21.51;100.00;101262.69;5080841;28;20047;-82
2022/07/26 09:12:29;;;;;;;1.95;0.50;;;;;;;21.05;100.00;101263.41;5084929;28;20035;-83
2022/07/26 09:14:55;;;;;;;2.05;0.45;;;;;;;20.91;100.00;101256.69;5102999;28;20043;-83
2022/07/26 09:17:24;;;;;;;5.90;0.50;;;;;;;21.30;100.00;101265.03;5067662;28;20093;-83
2022/07/26 09:20:11;;;;;;;6.63;1.00;;;;;;;20.98;100.00;101266.03;5101763;28;20036;-83
2022/07/26 09:22:54;;;;;;;2.05;0.55;;;;;;;21.00;100.00;101275.06;5082734;28;20054;-83
2022/07/26 09:25:21;;;;;;;1.80;0.60;;;;;;;20.56;100.00;101278.31;5080041;28;20089;-82
2022/07/26 09:27:47;;;;;;;5.18;0.65;;;;;;;21.31;100.00;101279.81;5064954;28;20059;-82
2022/07/26 09:30:13;;;;;;;5.07;0.80;;;;;;;21.16;100.00;101290.00;5095594;28;20085;-82
2022/07/26 09:32:39;;;;;;;3.03;0.73;;;;;;;21.20;100.00;101285.78;5065723;28;20048;-82
2022/07/26 09:35:10;;;;;;;0.90;0.50;;;;;;;21.10;100.00;101284.09;5050464;28;20471;-82
2022/07/26 09:37:42;;;;;;;0.98;0.40;;;;;;;21.55;100.00;101287.22;5066148;28;20152;-84
2022/07/26 09:40:10;;;;;;;1.30;0.50;;;;;;;21.97;100.00;101285.91;5064760;28;20035;-82
2022/07/26 09:42:37;;;;;;;0.85;0.50;;;;;;;21.98;100.00;101292.31;5083083;28;20028;-82
2022/07/26 09:45:14;;;;;;;1.70;0.47;;;;;;;23.09;100.00;101296.34;5050612;28;20122;-83
2022/07/26 09:47:39;;;;;;;1.42;0.50;;;;;;;23.62;100.00;101296.16;5101481;28;20040;-82
2022/07/26 09:50:19;;;;;;;1.00;0.40;;;;;;;23.41;100.00;101296.97;5081546;28;20039;-82
2022/07/26 09:53:07;;;;;;;1.08;0.40;;;;;;;23.68;100.00;101295.38;5088912;28;20089;-81
2022/07/26 09:55:54;;;;;;;2.15;0.50;;;;;;;23.32;100.00;101292.56;5085547;28;20032;-82
2022/07/26 09:58:20;;;;;;;1.70;0.50;;;;;;;23.41;100.00;101310.09;5083632;28;20032;-82
2022/07/26 10:00:47;;;;;;;1.48;0.43;;;;;;;24.07;99.02;101301.63;5081713;28;20383;-82
2022/07/26 10:03:12;;;;;;;2.10;0.55;;;;;;;24.17;94.95;101309.66;5100210;28;20024;-82
2022/07/26 10:05:39;;;;;;;2.17;0.50;;;;;;;24.45;94.29;101314.44;5100309;28;20028;-82
2022/07/26 10:08:05;;;;;;;5.53;0.75;;;;;;;24.43;93.10;101306.25;5099751;28;20360;-83
2022/07/26 10:10:46;;;;;;;1.75;0.60;;;;;;;24.21;93.66;101305.41;5075408;28;20802;-82
2022/07/26 10:13:12;;;;;;;2.17;0.50;;;;;;;24.20;95.08;101318.56;5078683;28;20028;-83
2022/07/26 10:15:44;;;;;;;0.80;0.65;;;;;;;23.82;96.14;101307.59;5081208;28;20043;-79
2022/07/26 10:18:31;;;;;;;1.13;0.60;;;;;;;23.98;95.87;101314.88;5076167;28;20028;-79
2022/07/26 10:20:56;;;;;;;1.40;0.60;;;;;;;24.03;94.77;101323.53;5056410;28;20052;-79
2022/07/26 10:23:40;;;;;;;3.10;0.60;;;;;;;23.34;97.42;101321.19;5061396;28;20035;-78
2022/07/26 10:26:08;;;;;;;1.05;0.50;;;;;;;22.76;94.92;101318.16;5072148;28;20043;-78
2022/07/26 10:28:35;;;;;;;2.78;0.60;;;;;;;22.46;97.30;101320.88;5097758;28;20024;-77
2022/07/26 10:31:19;;;;;;;1.35;0.50;;;;;;;22.48;97.31;101318.78;5078749;28;20023;-79
2022/07/26 10:33:48;;;;;;;0.73;0.60;;;;;;;22.05;100.00;101317.53;5059400;28;20043;-77
2022/07/26 10:36:34;;;;;;;3.47;0.60;;;;;;;22.08;100.00;101318.03;5095599;28;20162;-78
2022/07/26 10:39:07;;;;;;;2.38;0.60;;;;;;;22.87;99.93;101323.25;5079368;28;20394;-78
2022/07/26 10:41:42;;;;;;;4.75;0.60;;;;;;;23.60;91.05;101325.38;5079846;28;20081;-78
2022/07/26 10:44:21;;;;;;;1.50;0.57;;;;;;;25.33;82.12;101322.44;5079122;28;20423;-79
2022/07/26 10:46:57;;;;;;;1.48;0.55;;;;;;;24.77;83.88;101319.47;5078678;28;20115;-79
2022/07/26 10:49:36;;;;;;;2.67;0.68;;;;;;;25.17;83.76;101326.41;5061838;28;20039;-78
2022/07/26 10:52:20;;;;;;;7.28;1.02;;;;;;;24.42;84.72;101314.88;5058554;28;20115;-78
2022/07/26 10:54:57;;;;;;;1.65;0.80;;;;;;;24.19;90.14;101335.53;5085814;28;20198;-77
2022/07/26 10:57:27;;;;;;;1.58;0.73;;;;;;;24.37;90.09;101324.72;5090882;28;20020;-77
2022/07/26 10:59:56;;;;;;;3.13;0.85;;;;;;;23.40;93.65;101339.09;5076114;28;20545;-77
2022/07/26 11:02:27;;;;;;;2.70;0.80;;;;;;;22.95;97.33;101336.28;5067575;28;20491;-78
2022/07/26 11:05:20;;;;;;;4.63;0.90;;;;;;;22.76;100.00;101340.50;5082773;28;20391;-78
2022/07/26 11:08:07;;;;;;;3.38;0.80;;;;;;;22.73;100.00;101333.38;5078981;28;20051;-77
2022/07/26 11:10:34;;;;;;;4.63;0.70;;;;;;;22.99;98.76;101333.97;5064030;28;20032;-79
2022/07/26 11:13:03;;;;;;;2.60;0.70;;;;;;;22.97;94.22;101334.16;5086815;28;20043;-78
2022/07/26 11:15:29;;;;;;;3.72;0.70;;;;;;;22.81;96.42;101335.22;5081038;28;20035;-78
2022/07/26 11:18:12;;;;;;;3.33;0.70;;;;;;;23.18;92.83;101344.59;5061838;28;20185;-79